This is the latest recevied weather packets stored in our database for station/object NN5DX-13. If no packets are shown the sender has not sent any weather packets the latest 10 day(s).
| Time | Temp. | Humidity | Pressure | Rain* | Wind** | Luminosity | Snow |
|---|---|---|---|---|---|---|---|
| 1777607116 | 18.89° C | 62% | 1013.2 hPa | 0 mm | - | - | - |
| 1777606816 | 18.89° C | 61% | 1013.7 hPa | 0 mm | - | - | - |
| 1777606516 | 19.44° C | 60% | 1013.7 hPa | 0 mm | - | - | - |
| 1777606216 | 19.44° C | 59% | 1013.5 hPa | 0 mm | - | - | - |
| 1777605916 | 19.44° C | 57% | 1013.7 hPa | 0 mm | - | - | - |
| 1777605616 | 19.44° C | 53% | 1013.7 hPa | 0 mm | - | - | - |
| 1777605316 | 19.44° C | 52% | 1013.6 hPa | 0 mm | - | - | - |
| 1777605016 | 19.44° C | 51% | 1013.5 hPa | 0 mm | - | - | - |
| 1777604716 | 20° C | 52% | 1013.2 hPa | 0 mm | - | - | - |
| 1777604416 | 20° C | 52% | 1013.1 hPa | 0 mm | - | - | - |
| 1777604116 | 20° C | 52% | 1012.9 hPa | 0 mm | - | - | - |
| 1777603816 | 20° C | 51% | 1012.9 hPa | 0 mm | - | - | - |
| 1777603516 | 20° C | 51% | 1012.9 hPa | 0 mm | - | - | - |
| 1777603216 | 20° C | 51% | 1012.8 hPa | 0 mm | - | - | - |
| 1777602916 | 20° C | 51% | 1012.8 hPa | 0 mm | - | - | - |
| 1777602616 | 20° C | 51% | 1012.9 hPa | 0 mm | - | - | - |
| 1777602316 | 20° C | 51% | 1012.8 hPa | 0 mm | - | - | - |
| 1777602016 | 20° C | 52% | 1012.9 hPa | 0 mm | - | - | - |
| 1777601417 | 20.56° C | 51% | 1012.8 hPa | 0 mm | - | - | - |
| 1777586716 | 25° C | 48% | 1011.2 hPa | 0 mm | - | - | - |
| 1777584916 | 23.89° C | 54% | 1011.4 hPa | 0 mm | - | - | - |
| 1777584616 | 24.44° C | 53% | 1011.4 hPa | 0 mm | - | - | - |
| 1777584316 | 24.44° C | 54% | 1011.4 hPa | 0 mm | - | - | - |
| 1777584016 | 23.33° C | 55% | 1011.4 hPa | 0 mm | - | - | - |
| 1777583716 | 23.33° C | 55% | 1011.5 hPa | 0 mm | - | - | - |
* Rain latest hour (hover to see other rain measurements)
** Current wind speed in m/s (hover to see current wind gust speed)